createdAt,value
2023-11-09T00:02:57.034Z,1.67
2023-11-09T00:07:59.280Z,0.90
2023-11-09T00:13:01.539Z,1.40
2023-11-09T00:18:03.801Z,0.68
2023-11-09T00:23:05.999Z,1.27
2023-11-09T00:28:08.682Z,1.00
2023-11-09T00:33:11.112Z,0.90
2023-11-09T00:38:16.261Z,1.48
2023-11-09T00:43:18.548Z,0.98
2023-11-09T00:48:20.815Z,1.77
2023-11-09T00:53:23.193Z,1.58
2023-11-09T00:58:25.521Z,1.52
2023-11-09T01:03:27.889Z,0.77
2023-11-09T01:08:30.786Z,1.15
2023-11-09T01:13:34.535Z,0.80
2023-11-09T01:18:37.870Z,0.70
2023-11-09T01:23:39.987Z,1.17
2023-11-09T01:28:42.161Z,0.80
2023-11-09T01:33:44.408Z,0.40
2023-11-09T01:38:46.577Z,0.85
2023-11-09T01:43:59.605Z,0.32
2023-11-09T01:49:02.655Z,0.77
2023-11-09T01:54:07.417Z,0.63
2023-11-09T01:59:11.460Z,1.17
2023-11-09T02:04:14.405Z,0.57
2023-11-09T02:09:16.819Z,0.82
2023-11-09T02:14:20.712Z,0.73
2023-11-09T02:19:24.130Z,0.95
2023-11-09T02:24:27.920Z,1.38
2023-11-09T02:29:30.144Z,0.60
2023-11-09T02:34:34.484Z,0.90
2023-11-09T02:39:36.865Z,1.77
2023-11-09T02:44:40.736Z,0.50
2023-11-09T02:49:42.946Z,0.20
2023-11-09T02:54:45.167Z,1.15
2023-11-09T02:59:48.381Z,0.80
2023-11-09T03:04:50.773Z,0.85
2023-11-09T03:09:53.221Z,1.88
2023-11-09T03:14:55.731Z,0.88
2023-11-09T03:19:59.373Z,0.82
2023-11-09T03:25:01.624Z,1.95
2023-11-09T03:30:04.232Z,0.60
2023-11-09T03:35:08.088Z,0.43
2023-11-09T03:40:12.482Z,0.95
2023-11-09T03:45:15.281Z,0.80
2023-11-09T03:50:17.629Z,1.08
2023-11-09T03:55:19.946Z,0.63
2023-11-09T04:00:22.172Z,0.80
2023-11-09T04:05:24.317Z,0.63
2023-11-09T04:10:26.399Z,0.60
2023-11-09T04:15:28.614Z,0.55
2023-11-09T04:20:30.690Z,0.77
2023-11-09T04:25:32.872Z,1.02
2023-11-09T04:30:35.179Z,1.10
2023-11-09T04:35:37.663Z,0.70
2023-11-09T04:40:40.002Z,0.85
2023-11-09T04:45:43.875Z,0.70
2023-11-09T04:50:50.456Z,0.82
2023-11-09T04:55:58.974Z,1.10
2023-11-09T05:01:19.755Z,1.58
2023-11-09T05:06:40.652Z,0.80
2023-11-09T05:11:42.857Z,0.88
2023-11-09T05:16:45.200Z,1.13
2023-11-09T05:21:47.339Z,0.95
2023-11-09T05:26:52.380Z,1.30
2023-11-09T05:31:54.554Z,1.25
2023-11-09T05:36:57.286Z,0.75
2023-11-09T05:42:00.932Z,2.17
2023-11-09T05:57:07.636Z,0.70
2023-11-09T06:02:09.817Z,1.13
2023-11-09T06:07:12.925Z,0.88
2023-11-09T06:12:17.152Z,1.13
2023-11-09T06:17:19.297Z,1.10
2023-11-09T06:22:21.321Z,2.75
2023-11-09T06:27:23.465Z,1.20
2023-11-09T06:32:26.612Z,0.90
2023-11-09T06:37:29.319Z,1.55
2023-11-09T06:42:31.591Z,0.57
2023-11-09T06:47:37.059Z,1.38
2023-11-09T06:52:41.071Z,0.93
2023-11-09T06:57:44.953Z,1.25
2023-11-09T07:07:52.199Z,1.65
2023-11-09T07:12:54.357Z,1.80
2023-11-09T07:17:56.610Z,2.58
2023-11-09T07:23:02.321Z,1.77
2023-11-09T07:28:05.963Z,1.20
2023-11-09T07:38:15.332Z,0.80
2023-11-09T07:43:17.733Z,1.17
2023-11-09T07:48:22.840Z,2.40
2023-11-09T07:53:25.231Z,2.95
2023-11-09T07:58:27.480Z,3.15
2023-11-09T08:03:29.994Z,1.23
2023-11-09T08:08:32.240Z,1.45
2023-11-09T08:13:34.912Z,3.35
2023-11-09T08:18:37.231Z,2.53
2023-11-09T08:23:39.830Z,3.38
2023-11-09T08:28:42.204Z,2.53
2023-11-09T08:33:44.736Z,3.05
2023-11-09T08:38:47.201Z,2.42
2023-11-09T08:43:51.120Z,2.88
2023-11-09T08:48:54.037Z,1.13
2023-11-09T08:53:57.655Z,2.88
2023-11-09T08:59:01.140Z,2.35
2023-11-09T09:04:04.883Z,1.80
2023-11-09T09:14:16.484Z,1.08
2023-11-09T09:19:19.365Z,2.80
2023-11-09T09:24:21.975Z,2.58
2023-11-09T09:29:28.796Z,2.47
2023-11-09T09:34:32.558Z,1.55
2023-11-09T09:39:34.684Z,3.47
2023-11-09T09:44:39.155Z,1.48
2023-11-09T09:49:42.649Z,3.05
2023-11-09T09:54:45.078Z,2.00
2023-11-09T09:59:48.748Z,3.22
2023-11-09T10:09:54.715Z,2.22
2023-11-09T10:14:57.920Z,1.88
2023-11-09T10:20:00.150Z,1.55
2023-11-09T10:25:02.473Z,1.58
2023-11-09T10:30:07.746Z,3.28
2023-11-09T10:35:12.174Z,2.38
2023-11-09T10:40:16.104Z,1.65
2023-11-09T10:45:23.604Z,1.45
2023-11-09T10:50:28.013Z,2.65
2023-11-09T10:55:32.316Z,2.72
2023-11-09T11:00:36.337Z,2.83
2023-11-09T11:05:42.624Z,3.20
2023-11-09T11:10:53.008Z,2.85
2023-11-09T11:16:11.960Z,3.63
2023-11-09T11:21:37.490Z,4.28
2023-11-09T11:27:16.052Z,2.20
2023-11-09T11:32:39.685Z,3.38
2023-11-09T11:37:42.309Z,7.10
2023-11-09T11:42:45.656Z,5.53
2023-11-09T11:47:48.017Z,3.33
2023-11-09T11:52:50.373Z,2.63
2023-11-09T11:58:04.782Z,1.75
2023-11-09T12:03:11.228Z,2.45
2023-11-09T12:08:14.253Z,2.05
2023-11-09T12:13:16.519Z,3.40
2023-11-09T12:18:18.588Z,2.65
2023-11-09T12:23:20.839Z,2.65
2023-11-09T12:28:25.678Z,5.78
2023-11-09T12:33:28.024Z,3.00
2023-11-09T12:38:31.472Z,2.65
2023-11-09T12:43:44.419Z,2.63
2023-11-09T12:48:53.399Z,2.00
2023-11-09T12:53:59.231Z,2.67
2023-11-09T12:59:01.955Z,2.60
2023-11-09T13:04:04.396Z,3.92
2023-11-09T13:09:17.252Z,2.60
2023-11-09T13:14:24.100Z,2.20
2023-11-09T13:19:28.088Z,3.15
2023-11-09T13:24:34.843Z,2.72
2023-11-09T13:29:40.375Z,2.90
2023-11-09T13:34:48.743Z,2.95
2023-11-09T13:40:08.951Z,1.67
2023-11-09T13:45:29.743Z,2.03
2023-11-09T13:50:33.335Z,1.90
2023-11-09T14:01:02.826Z,2.92
2023-11-09T14:06:10.421Z,1.98
2023-11-09T14:11:12.856Z,4.38
2023-11-09T14:16:24.605Z,2.72
2023-11-09T14:21:34.107Z,3.17
2023-11-09T14:26:38.029Z,4.03
2023-11-09T14:31:41.219Z,6.85
2023-11-09T14:36:48.739Z,4.03
2023-11-09T14:41:51.172Z,4.82
2023-11-09T14:46:55.967Z,5.50
2023-11-09T14:52:02.247Z,4.32
2023-11-09T14:57:05.221Z,5.80
2023-11-09T15:02:07.505Z,6.55
2023-11-09T15:07:21.582Z,6.53
2023-11-09T15:12:24.068Z,4.25
2023-11-09T15:17:27.022Z,5.00
2023-11-09T15:22:29.178Z,6.13
2023-11-09T15:27:31.697Z,4.53
2023-11-09T15:32:35.010Z,5.97
2023-11-09T15:37:39.856Z,5.60
2023-11-09T15:42:52.977Z,4.38
2023-11-09T15:47:58.297Z,8.65
2023-11-09T15:53:00.500Z,4.15
2023-11-09T15:58:08.316Z,5.78
2023-11-09T16:03:11.829Z,6.53
2023-11-09T16:08:14.367Z,3.63
2023-11-09T16:13:16.510Z,3.13
2023-11-09T16:18:18.806Z,4.72
2023-11-09T16:23:22.041Z,3.92
2023-11-09T16:28:24.706Z,4.43
2023-11-09T16:33:26.775Z,2.65
2023-11-09T16:38:28.953Z,6.47
2023-11-09T16:43:33.207Z,4.13
2023-11-09T16:48:40.163Z,2.38
2023-11-09T16:53:45.261Z,3.33
2023-11-09T16:58:47.565Z,3.60
2023-11-09T17:03:50.373Z,3.92
2023-11-09T17:08:52.676Z,3.38
2023-11-09T17:13:56.367Z,3.47
2023-11-09T17:19:00.779Z,4.05
2023-11-09T17:24:03.300Z,3.58
2023-11-09T17:29:05.904Z,2.97
2023-11-09T17:34:08.040Z,3.35
2023-11-09T17:39:11.146Z,6.38
2023-11-09T17:44:13.870Z,4.15
2023-11-09T17:49:17.033Z,2.28
2023-11-09T17:54:20.006Z,4.00
2023-11-09T17:59:22.207Z,3.67
2023-11-09T18:04:26.893Z,4.70
2023-11-09T18:09:29.084Z,3.95
2023-11-09T18:14:31.933Z,3.28
2023-11-09T18:19:34.026Z,2.83
2023-11-09T18:24:36.548Z,3.33
2023-11-09T18:29:39.200Z,1.58
2023-11-09T18:34:42.961Z,1.30
2023-11-09T18:39:48.493Z,6.03
2023-11-09T18:44:50.712Z,1.17
2023-11-09T18:54:57.916Z,5.47
2023-11-09T19:00:00.250Z,1.90
2023-11-09T19:05:02.868Z,1.52
2023-11-09T19:10:07.539Z,2.78
2023-11-09T19:15:11.068Z,1.85
2023-11-09T19:30:21.096Z,2.33
2023-11-09T19:35:23.219Z,1.85
2023-11-09T19:40:25.354Z,2.03
2023-11-09T19:45:28.663Z,1.70
2023-11-09T19:50:30.733Z,1.08
2023-11-09T19:55:32.837Z,1.27
2023-11-09T20:00:35.185Z,2.45
2023-11-09T20:05:37.326Z,0.50
2023-11-09T20:10:39.565Z,2.80
2023-11-09T20:15:41.998Z,2.58
2023-11-09T20:20:44.528Z,1.27
2023-11-09T20:25:46.788Z,2.35
2023-11-09T20:30:48.915Z,1.10
2023-11-09T20:35:51.242Z,2.05
2023-11-09T20:40:53.413Z,3.90
2023-11-09T20:45:55.630Z,1.15
2023-11-09T20:50:58.533Z,2.53
2023-11-09T20:56:00.592Z,1.40
2023-11-09T21:01:04.260Z,1.23
2023-11-09T21:11:14.605Z,1.50
2023-11-09T21:16:17.003Z,2.30
2023-11-09T21:21:19.185Z,1.30
2023-11-09T21:26:21.258Z,2.78
2023-11-09T21:31:24.905Z,1.40
2023-11-09T21:36:27.612Z,0.90
2023-11-09T21:41:29.789Z,1.85
2023-11-09T21:46:31.904Z,0.88
2023-11-09T21:51:42.273Z,1.42
2023-11-09T21:56:46.013Z,1.67
2023-11-09T22:01:48.157Z,0.90
2023-11-09T22:06:50.403Z,0.93
2023-11-09T22:11:52.843Z,2.20
2023-11-09T22:16:55.137Z,0.85
2023-11-09T22:21:57.951Z,1.50
2023-11-09T22:27:00.086Z,0.80
2023-11-09T22:32:02.360Z,2.05
2023-11-09T22:37:05.861Z,1.50
2023-11-09T22:42:10.761Z,0.40
2023-11-09T22:47:14.122Z,0.65
2023-11-09T22:52:16.330Z,0.57
2023-11-09T22:57:18.580Z,0.57
2023-11-09T23:02:20.660Z,1.10
2023-11-09T23:07:22.732Z,1.23
2023-11-09T23:12:24.925Z,0.90
2023-11-09T23:17:27.064Z,0.70
2023-11-09T23:22:29.148Z,1.20
2023-11-09T23:27:31.272Z,0.63
2023-11-09T23:32:33.484Z,1.42
2023-11-09T23:37:35.591Z,0.70
2023-11-09T23:42:37.826Z,0.70
2023-11-09T23:47:40.446Z,1.20
2023-11-09T23:52:42.996Z,1.98
2023-11-09T23:57:46.393Z,0.70
